sensor_id;sensor_type;location;lat;lon;timestamp;P1;durP1;ratioP1;P2;durP2;ratioP2
41305;SDS011;27051;50.376;19.152;2023-02-28T00:00:41;29.20;;;10.80;;
41305;SDS011;27051;50.376;19.152;2023-02-28T00:03:16;26.50;;;10.10;;
41305;SDS011;27051;50.376;19.152;2023-02-28T00:05:42;28.50;;;11.00;;
41305;SDS011;27051;50.376;19.152;2023-02-28T00:08:09;27.90;;;10.40;;
41305;SDS011;27051;50.376;19.152;2023-02-28T00:10:35;28.50;;;10.00;;
41305;SDS011;27051;50.376;19.152;2023-02-28T00:13:02;24.70;;;9.70;;
41305;SDS011;27051;50.376;19.152;2023-02-28T00:15:30;23.10;;;9.20;;
41305;SDS011;27051;50.376;19.152;2023-02-28T00:17:57;28.70;;;11.00;;
41305;SDS011;27051;50.376;19.152;2023-02-28T00:20:23;25.20;;;9.50;;
41305;SDS011;27051;50.376;19.152;2023-02-28T00:22:50;26.50;;;8.90;;
41305;SDS011;27051;50.376;19.152;2023-02-28T00:25:19;28.40;;;10.00;;
41305;SDS011;27051;50.376;19.152;2023-02-28T00:27:47;30.50;;;10.30;;
41305;SDS011;27051;50.376;19.152;2023-02-28T00:30:15;27.10;;;9.00;;
41305;SDS011;27051;50.376;19.152;2023-02-28T00:32:43;24.60;;;8.70;;
41305;SDS011;27051;50.376;19.152;2023-02-28T00:35:10;28.60;;;10.00;;
41305;SDS011;27051;50.376;19.152;2023-02-28T00:37:37;26.60;;;9.30;;
41305;SDS011;27051;50.376;19.152;2023-02-28T00:40:03;21.60;;;8.70;;
41305;SDS011;27051;50.376;19.152;2023-02-28T00:42:30;23.40;;;9.00;;
41305;SDS011;27051;50.376;19.152;2023-02-28T00:44:56;25.20;;;10.00;;
41305;SDS011;27051;50.376;19.152;2023-02-28T00:47:24;26.60;;;10.10;;
41305;SDS011;27051;50.376;19.152;2023-02-28T00:49:50;23.40;;;8.90;;
41305;SDS011;27051;50.376;19.152;2023-02-28T00:52:17;23.70;;;9.00;;
41305;SDS011;27051;50.376;19.152;2023-02-28T00:54:43;22.80;;;8.80;;
41305;SDS011;27051;50.376;19.152;2023-02-28T00:57:09;23.10;;;9.30;;
41305;SDS011;27051;50.376;19.152;2023-02-28T00:59:35;26.10;;;9.20;;
41305;SDS011;27051;50.376;19.152;2023-02-28T01:02:01;22.50;;;9.00;;
41305;SDS011;27051;50.376;19.152;2023-02-28T01:04:27;22.00;;;8.50;;
41305;SDS011;27051;50.376;19.152;2023-02-28T01:06:54;24.50;;;9.00;;
41305;SDS011;27051;50.376;19.152;2023-02-28T01:09:20;23.80;;;8.80;;
41305;SDS011;27051;50.376;19.152;2023-02-28T01:11:46;23.70;;;8.50;;
41305;SDS011;27051;50.376;19.152;2023-02-28T01:14:13;22.80;;;8.20;;
41305;SDS011;27051;50.376;19.152;2023-02-28T01:16:41;18.90;;;7.80;;
41305;SDS011;27051;50.376;19.152;2023-02-28T01:19:08;25.20;;;8.60;;
41305;SDS011;27051;50.376;19.152;2023-02-28T01:21:34;20.30;;;7.70;;
41305;SDS011;27051;50.376;19.152;2023-02-28T01:24:00;21.30;;;7.90;;
41305;SDS011;27051;50.376;19.152;2023-02-28T01:26:27;21.90;;;7.80;;
41305;SDS011;27051;50.376;19.152;2023-02-28T01:28:53;19.30;;;7.80;;
41305;SDS011;27051;50.376;19.152;2023-02-28T01:31:20;27.70;;;8.80;;
41305;SDS011;27051;50.376;19.152;2023-02-28T01:33:47;20.30;;;8.10;;
41305;SDS011;27051;50.376;19.152;2023-02-28T01:36:15;19.50;;;7.90;;
41305;SDS011;27051;50.376;19.152;2023-02-28T01:38:44;21.00;;;7.80;;
41305;SDS011;27051;50.376;19.152;2023-02-28T01:41:16;18.60;;;7.70;;
41305;SDS011;27051;50.376;19.152;2023-02-28T01:46:12;19.40;;;8.00;;
41305;SDS011;27051;50.376;19.152;2023-02-28T01:48:43;19.40;;;6.80;;
41305;SDS011;27051;50.376;19.152;2023-02-28T01:51:18;20.00;;;8.00;;
41305;SDS011;27051;50.376;19.152;2023-02-28T01:53:49;19.90;;;7.70;;
41305;SDS011;27051;50.376;19.152;2023-02-28T01:56:20;20.00;;;7.60;;
41305;SDS011;27051;50.376;19.152;2023-02-28T01:58:49;24.80;;;8.90;;
41305;SDS011;27051;50.376;19.152;2023-02-28T02:01:18;22.20;;;8.90;;
41305;SDS011;27051;50.376;19.152;2023-02-28T02:03:45;28.00;;;10.20;;
41305;SDS011;27051;50.376;19.152;2023-02-28T02:06:11;29.60;;;10.50;;
41305;SDS011;27051;50.376;19.152;2023-02-28T02:08:38;24.30;;;10.10;;
41305;SDS011;27051;50.376;19.152;2023-02-28T02:11:04;21.30;;;8.00;;
41305;SDS011;27051;50.376;19.152;2023-02-28T02:40:54;21.50;;;8.30;;
41305;SDS011;27051;50.376;19.152;2023-02-28T02:43:38;23.50;;;8.40;;
41305;SDS011;27051;50.376;19.152;2023-02-28T02:46:19;22.50;;;8.90;;
41305;SDS011;27051;50.376;19.152;2023-02-28T02:48:47;19.00;;;7.90;;
41305;SDS011;27051;50.376;19.152;2023-02-28T02:51:16;22.00;;;8.80;;
41305;SDS011;27051;50.376;19.152;2023-02-28T02:53:49;23.70;;;8.50;;
41305;SDS011;27051;50.376;19.152;2023-02-28T02:56:23;21.60;;;8.10;;
41305;SDS011;27051;50.376;19.152;2023-02-28T02:59:02;20.10;;;7.80;;
41305;SDS011;27051;50.376;19.152;2023-02-28T03:01:32;19.80;;;7.60;;
41305;SDS011;27051;50.376;19.152;2023-02-28T03:04:02;22.70;;;8.30;;
41305;SDS011;27051;50.376;19.152;2023-02-28T03:06:33;20.80;;;8.30;;
41305;SDS011;27051;50.376;19.152;2023-02-28T03:08:59;21.00;;;8.60;;
41305;SDS011;27051;50.376;19.152;2023-02-28T03:11:27;20.70;;;8.40;;
41305;SDS011;27051;50.376;19.152;2023-02-28T03:16:54;20.60;;;8.10;;
41305;SDS011;27051;50.376;19.152;2023-02-28T03:19:43;21.80;;;8.10;;
41305;SDS011;27051;50.376;19.152;2023-02-28T03:22:33;26.10;;;9.40;;
41305;SDS011;27051;50.376;19.152;2023-02-28T03:28:02;20.70;;;7.60;;
41305;SDS011;27051;50.376;19.152;2023-02-28T03:30:52;30.00;;;10.20;;
41305;SDS011;27051;50.376;19.152;2023-02-28T03:33:27;28.00;;;10.90;;
41305;SDS011;27051;50.376;19.152;2023-02-28T03:36:22;28.60;;;10.40;;
41305;SDS011;27051;50.376;19.152;2023-02-28T03:41:27;35.90;;;13.00;;
41305;SDS011;27051;50.376;19.152;2023-02-28T03:44:04;30.50;;;12.50;;
41305;SDS011;27051;50.376;19.152;2023-02-28T03:46:38;25.70;;;10.40;;
41305;SDS011;27051;50.376;19.152;2023-02-28T03:49:54;21.00;;;9.20;;
41305;SDS011;27051;50.376;19.152;2023-02-28T03:52:10;24.80;;;9.30;;
41305;SDS011;27051;50.376;19.152;2023-02-28T03:54:40;23.40;;;9.30;;
41305;SDS011;27051;50.376;19.152;2023-02-28T03:57:23;24.20;;;8.80;;
41305;SDS011;27051;50.376;19.152;2023-02-28T04:00:00;21.40;;;8.30;;
41305;SDS011;27051;50.376;19.152;2023-02-28T04:02:32;19.80;;;8.90;;
41305;SDS011;27051;50.376;19.152;2023-02-28T04:04:59;25.20;;;10.00;;
41305;SDS011;27051;50.376;19.152;2023-02-28T04:07:28;22.40;;;9.00;;
41305;SDS011;27051;50.376;19.152;2023-02-28T04:09:56;25.10;;;10.50;;
41305;SDS011;27051;50.376;19.152;2023-02-28T04:12:23;25.70;;;10.00;;
41305;SDS011;27051;50.376;19.152;2023-02-28T04:14:49;26.00;;;9.90;;
41305;SDS011;27051;50.376;19.152;2023-02-28T04:17:16;26.30;;;10.60;;
41305;SDS011;27051;50.376;19.152;2023-02-28T04:19:43;25.80;;;9.50;;
41305;SDS011;27051;50.376;19.152;2023-02-28T04:22:12;25.90;;;10.10;;
41305;SDS011;27051;50.376;19.152;2023-02-28T04:24:42;21.70;;;9.40;;
41305;SDS011;27051;50.376;19.152;2023-02-28T04:27:08;21.20;;;9.00;;
41305;SDS011;27051;50.376;19.152;2023-02-28T04:29:35;24.60;;;9.60;;
41305;SDS011;27051;50.376;19.152;2023-02-28T04:32:01;23.40;;;9.40;;
41305;SDS011;27051;50.376;19.152;2023-02-28T04:34:29;21.50;;;9.60;;
41305;SDS011;27051;50.376;19.152;2023-02-28T04:36:57;26.50;;;9.30;;
41305;SDS011;27051;50.376;19.152;2023-02-28T04:39:23;23.60;;;8.90;;
41305;SDS011;27051;50.376;19.152;2023-02-28T04:41:50;19.30;;;8.50;;
41305;SDS011;27051;50.376;19.152;2023-02-28T04:44:16;19.20;;;8.30;;
41305;SDS011;27051;50.376;19.152;2023-02-28T04:46:43;24.20;;;9.70;;
41305;SDS011;27051;50.376;19.152;2023-02-28T04:49:11;20.90;;;7.70;;
41305;SDS011;27051;50.376;19.152;2023-02-28T04:51:39;26.90;;;9.60;;
41305;SDS011;27051;50.376;19.152;2023-02-28T04:54:07;23.80;;;8.70;;
41305;SDS011;27051;50.376;19.152;2023-02-28T04:56:34;22.00;;;10.30;;
41305;SDS011;27051;50.376;19.152;2023-02-28T04:59:00;20.20;;;8.20;;
41305;SDS011;27051;50.376;19.152;2023-02-28T05:01:27;22.30;;;9.30;;
41305;SDS011;27051;50.376;19.152;2023-02-28T05:03:59;24.60;;;9.20;;
41305;SDS011;27051;50.376;19.152;2023-02-28T05:06:27;22.20;;;8.70;;
41305;SDS011;27051;50.376;19.152;2023-02-28T05:08:59;25.60;;;9.90;;
41305;SDS011;27051;50.376;19.152;2023-02-28T05:11:27;26.10;;;10.40;;
41305;SDS011;27051;50.376;19.152;2023-02-28T05:13:55;28.60;;;11.50;;
41305;SDS011;27051;50.376;19.152;2023-02-28T05:16:21;36.60;;;15.00;;
41305;SDS011;27051;50.376;19.152;2023-02-28T05:18:50;30.00;;;11.80;;
41305;SDS011;27051;50.376;19.152;2023-02-28T05:21:38;27.10;;;11.70;;
41305;SDS011;27051;50.376;19.152;2023-02-28T05:24:05;30.60;;;12.70;;
41305;SDS011;27051;50.376;19.152;2023-02-28T05:26:35;28.50;;;11.40;;
41305;SDS011;27051;50.376;19.152;2023-02-28T05:29:04;26.70;;;11.20;;
41305;SDS011;27051;50.376;19.152;2023-02-28T05:31:30;33.80;;;12.10;;
41305;SDS011;27051;50.376;19.152;2023-02-28T05:33:57;29.70;;;12.00;;
41305;SDS011;27051;50.376;19.152;2023-02-28T05:36:23;28.80;;;12.40;;
41305;SDS011;27051;50.376;19.152;2023-02-28T05:38:50;33.70;;;13.10;;
41305;SDS011;27051;50.376;19.152;2023-02-28T05:41:17;30.50;;;12.40;;
41305;SDS011;27051;50.376;19.152;2023-02-28T05:43:45;29.10;;;11.20;;
41305;SDS011;27051;50.376;19.152;2023-02-28T05:46:12;27.20;;;11.40;;
41305;SDS011;27051;50.376;19.152;2023-02-28T05:48:39;24.90;;;11.30;;
41305;SDS011;27051;50.376;19.152;2023-02-28T05:51:06;23.80;;;10.70;;
41305;SDS011;27051;50.376;19.152;2023-02-28T05:53:34;29.20;;;11.60;;
41305;SDS011;27051;50.376;19.152;2023-02-28T05:56:00;33.00;;;11.70;;
41305;SDS011;27051;50.376;19.152;2023-02-28T05:58:27;28.90;;;11.30;;
41305;SDS011;27051;50.376;19.152;2023-02-28T06:00:54;28.90;;;11.80;;
41305;SDS011;27051;50.376;19.152;2023-02-28T06:03:20;31.00;;;13.20;;
41305;SDS011;27051;50.376;19.152;2023-02-28T06:05:47;28.30;;;12.10;;
41305;SDS011;27051;50.376;19.152;2023-02-28T06:08:15;34.30;;;13.20;;
41305;SDS011;27051;50.376;19.152;2023-02-28T06:10:43;31.90;;;12.20;;
41305;SDS011;27051;50.376;19.152;2023-02-28T06:13:13;31.30;;;12.00;;
41305;SDS011;27051;50.376;19.152;2023-02-28T06:15:39;31.90;;;12.70;;
41305;SDS011;27051;50.376;19.152;2023-02-28T06:18:06;29.10;;;11.90;;
41305;SDS011;27051;50.376;19.152;2023-02-28T06:20:35;31.50;;;13.80;;
41305;SDS011;27051;50.376;19.152;2023-02-28T06:23:01;36.10;;;13.60;;
41305;SDS011;27051;50.376;19.152;2023-02-28T06:25:28;34.60;;;13.50;;
41305;SDS011;27051;50.376;19.152;2023-02-28T06:27:58;35.10;;;14.00;;
41305;SDS011;27051;50.376;19.152;2023-02-28T06:30:25;32.20;;;13.30;;
41305;SDS011;27051;50.376;19.152;2023-02-28T06:32:51;31.70;;;12.60;;
41305;SDS011;27051;50.376;19.152;2023-02-28T06:35:26;32.30;;;13.90;;
41305;SDS011;27051;50.376;19.152;2023-02-28T06:37:52;35.10;;;14.30;;
41305;SDS011;27051;50.376;19.152;2023-02-28T06:40:19;37.80;;;15.30;;
41305;SDS011;27051;50.376;19.152;2023-02-28T06:42:48;31.60;;;14.10;;
41305;SDS011;27051;50.376;19.152;2023-02-28T06:45:15;38.60;;;16.40;;
41305;SDS011;27051;50.376;19.152;2023-02-28T06:47:44;37.40;;;15.00;;
41305;SDS011;27051;50.376;19.152;2023-02-28T06:50:11;37.80;;;15.30;;
41305;SDS011;27051;50.376;19.152;2023-02-28T06:52:47;42.20;;;15.50;;
41305;SDS011;27051;50.376;19.152;2023-02-28T06:55:15;35.90;;;14.40;;
41305;SDS011;27051;50.376;19.152;2023-02-28T06:57:44;43.30;;;15.50;;
41305;SDS011;27051;50.376;19.152;2023-02-28T07:00:11;45.50;;;17.50;;
41305;SDS011;27051;50.376;19.152;2023-02-28T07:02:37;36.40;;;16.30;;
41305;SDS011;27051;50.376;19.152;2023-02-28T07:05:05;37.20;;;16.00;;
41305;SDS011;27051;50.376;19.152;2023-02-28T07:07:34;34.50;;;14.50;;
41305;SDS011;27051;50.376;19.152;2023-02-28T07:10:00;34.60;;;14.90;;
41305;SDS011;27051;50.376;19.152;2023-02-28T07:12:26;32.80;;;14.00;;
41305;SDS011;27051;50.376;19.152;2023-02-28T07:14:52;33.40;;;14.50;;
41305;SDS011;27051;50.376;19.152;2023-02-28T07:17:19;31.80;;;14.10;;
41305;SDS011;27051;50.376;19.152;2023-02-28T07:19:45;31.60;;;13.70;;
41305;SDS011;27051;50.376;19.152;2023-02-28T07:22:11;31.20;;;13.70;;
41305;SDS011;27051;50.376;19.152;2023-02-28T07:24:38;35.70;;;13.00;;
41305;SDS011;27051;50.376;19.152;2023-02-28T07:27:07;30.50;;;13.50;;
41305;SDS011;27051;50.376;19.152;2023-02-28T07:29:41;30.80;;;12.60;;
41305;SDS011;27051;50.376;19.152;2023-02-28T07:32:07;31.20;;;13.40;;
41305;SDS011;27051;50.376;19.152;2023-02-28T07:34:35;27.60;;;12.70;;
41305;SDS011;27051;50.376;19.152;2023-02-28T07:37:03;27.00;;;11.90;;
41305;SDS011;27051;50.376;19.152;2023-02-28T07:39:38;24.90;;;11.50;;
41305;SDS011;27051;50.376;19.152;2023-02-28T07:42:05;29.90;;;12.20;;
41305;SDS011;27051;50.376;19.152;2023-02-28T07:44:32;33.60;;;12.70;;
41305;SDS011;27051;50.376;19.152;2023-02-28T07:47:01;27.60;;;11.30;;
41305;SDS011;27051;50.376;19.152;2023-02-28T07:49:29;26.50;;;11.20;;
41305;SDS011;27051;50.376;19.152;2023-02-28T07:51:56;28.20;;;12.50;;
41305;SDS011;27051;50.376;19.152;2023-02-28T07:54:23;25.90;;;12.70;;
41305;SDS011;27051;50.376;19.152;2023-02-28T07:56:49;30.20;;;12.30;;
41305;SDS011;27051;50.376;19.152;2023-02-28T07:59:17;22.90;;;11.60;;
41305;SDS011;27051;50.376;19.152;2023-02-28T08:01:43;29.10;;;12.00;;
41305;SDS011;27051;50.376;19.152;2023-02-28T08:04:09;29.10;;;13.80;;
41305;SDS011;27051;50.376;19.152;2023-02-28T08:06:35;26.50;;;13.30;;
41305;SDS011;27051;50.376;19.152;2023-02-28T08:09:05;26.20;;;12.10;;
41305;SDS011;27051;50.376;19.152;2023-02-28T08:11:33;27.60;;;11.80;;
41305;SDS011;27051;50.376;19.152;2023-02-28T08:13:59;26.90;;;11.60;;
41305;SDS011;27051;50.376;19.152;2023-02-28T08:16:29;22.20;;;9.20;;
41305;SDS011;27051;50.376;19.152;2023-02-28T08:18:55;22.80;;;10.00;;
41305;SDS011;27051;50.376;19.152;2023-02-28T08:21:23;20.40;;;8.70;;
41305;SDS011;27051;50.376;19.152;2023-02-28T08:23:52;23.20;;;10.80;;
41305;SDS011;27051;50.376;19.152;2023-02-28T08:26:20;21.50;;;10.00;;
41305;SDS011;27051;50.376;19.152;2023-02-28T08:28:47;18.50;;;8.90;;
41305;SDS011;27051;50.376;19.152;2023-02-28T08:31:15;18.00;;;9.10;;
41305;SDS011;27051;50.376;19.152;2023-02-28T08:33:43;15.10;;;7.60;;
41305;SDS011;27051;50.376;19.152;2023-02-28T08:36:11;21.20;;;8.90;;
41305;SDS011;27051;50.376;19.152;2023-02-28T08:38:40;18.90;;;8.90;;
41305;SDS011;27051;50.376;19.152;2023-02-28T08:41:08;18.90;;;8.90;;
41305;SDS011;27051;50.376;19.152;2023-02-28T08:43:37;20.40;;;8.60;;
41305;SDS011;27051;50.376;19.152;2023-02-28T08:46:05;24.50;;;9.90;;
41305;SDS011;27051;50.376;19.152;2023-02-28T08:48:33;22.70;;;10.40;;
41305;SDS011;27051;50.376;19.152;2023-02-28T08:51:04;21.80;;;8.60;;
41305;SDS011;27051;50.376;19.152;2023-02-28T08:53:36;19.70;;;8.70;;
41305;SDS011;27051;50.376;19.152;2023-02-28T08:56:11;19.50;;;9.40;;
41305;SDS011;27051;50.376;19.152;2023-02-28T08:58:39;20.00;;;8.10;;
41305;SDS011;27051;50.376;19.152;2023-02-28T09:01:12;17.70;;;8.20;;
41305;SDS011;27051;50.376;19.152;2023-02-28T09:03:42;18.10;;;8.30;;
41305;SDS011;27051;50.376;19.152;2023-02-28T09:06:20;18.50;;;7.50;;
41305;SDS011;27051;50.376;19.152;2023-02-28T09:08:48;16.60;;;7.20;;
41305;SDS011;27051;50.376;19.152;2023-02-28T09:11:16;15.60;;;6.80;;
41305;SDS011;27051;50.376;19.152;2023-02-28T09:14:02;16.00;;;7.00;;
41305;SDS011;27051;50.376;19.152;2023-02-28T09:16:32;17.00;;;7.10;;
41305;SDS011;27051;50.376;19.152;2023-02-28T09:19:00;15.40;;;7.30;;
41305;SDS011;27051;50.376;19.152;2023-02-28T09:21:31;20.90;;;8.60;;
41305;SDS011;27051;50.376;19.152;2023-02-28T09:23:58;15.60;;;7.70;;
41305;SDS011;27051;50.376;19.152;2023-02-28T09:26:26;19.40;;;7.40;;
41305;SDS011;27051;50.376;19.152;2023-02-28T09:28:53;16.40;;;7.60;;
41305;SDS011;27051;50.376;19.152;2023-02-28T09:31:24;15.90;;;7.30;;
41305;SDS011;27051;50.376;19.152;2023-02-28T09:33:53;15.90;;;6.40;;
41305;SDS011;27051;50.376;19.152;2023-02-28T09:36:22;19.00;;;8.00;;
41305;SDS011;27051;50.376;19.152;2023-02-28T09:38:49;16.10;;;7.10;;
41305;SDS011;27051;50.376;19.152;2023-02-28T09:41:17;23.50;;;8.00;;
41305;SDS011;27051;50.376;19.152;2023-02-28T09:43:47;16.50;;;7.80;;
41305;SDS011;27051;50.376;19.152;2023-02-28T09:46:31;20.40;;;8.00;;
41305;SDS011;27051;50.376;19.152;2023-02-28T09:49:10;17.60;;;8.10;;
41305;SDS011;27051;50.376;19.152;2023-02-28T09:54:21;19.50;;;8.70;;
41305;SDS011;27051;50.376;19.152;2023-02-28T09:56:51;17.00;;;8.50;;
41305;SDS011;27051;50.376;19.152;2023-02-28T10:02:04;19.70;;;9.40;;
41305;SDS011;27051;50.376;19.152;2023-02-28T10:04:43;17.40;;;8.60;;
41305;SDS011;27051;50.376;19.152;2023-02-28T10:07:35;18.20;;;8.70;;
41305;SDS011;27051;50.376;19.152;2023-02-28T10:10:05;19.80;;;9.00;;
41305;SDS011;27051;50.376;19.152;2023-02-28T10:12:42;20.50;;;9.60;;
41305;SDS011;27051;50.376;19.152;2023-02-28T10:15:15;18.50;;;8.50;;
41305;SDS011;27051;50.376;19.152;2023-02-28T10:17:44;19.60;;;9.70;;
41305;SDS011;27051;50.376;19.152;2023-02-28T10:20:14;19.10;;;9.40;;
41305;SDS011;27051;50.376;19.152;2023-02-28T10:27:49;20.10;;;9.80;;
41305;SDS011;27051;50.376;19.152;2023-02-28T10:30:20;23.70;;;10.60;;
41305;SDS011;27051;50.376;19.152;2023-02-28T10:32:48;21.90;;;10.80;;
41305;SDS011;27051;50.376;19.152;2023-02-28T10:35:19;25.10;;;11.50;;
41305;SDS011;27051;50.376;19.152;2023-02-28T10:37:48;19.30;;;10.50;;
41305;SDS011;27051;50.376;19.152;2023-02-28T10:43:02;24.00;;;11.20;;
41305;SDS011;27051;50.376;19.152;2023-02-28T10:45:41;21.00;;;9.90;;
41305;SDS011;27051;50.376;19.152;2023-02-28T10:55:55;22.80;;;11.00;;
41305;SDS011;27051;50.376;19.152;2023-02-28T10:58:25;22.80;;;12.60;;
41305;SDS011;27051;50.376;19.152;2023-02-28T11:05:55;26.80;;;14.90;;
41305;SDS011;27051;50.376;19.152;2023-02-28T11:08:22;22.90;;;13.00;;
41305;SDS011;27051;50.376;19.152;2023-02-28T11:10:54;21.40;;;12.60;;
41305;SDS011;27051;50.376;19.152;2023-02-28T11:13:33;21.50;;;12.10;;
41305;SDS011;27051;50.376;19.152;2023-02-28T11:16:03;22.00;;;11.80;;
41305;SDS011;27051;50.376;19.152;2023-02-28T11:18:40;19.60;;;11.90;;
41305;SDS011;27051;50.376;19.152;2023-02-28T11:21:09;20.50;;;11.60;;
41305;SDS011;27051;50.376;19.152;2023-02-28T11:23:44;18.50;;;11.30;;
41305;SDS011;27051;50.376;19.152;2023-02-28T11:29:30;17.60;;;11.80;;
41305;SDS011;27051;50.376;19.152;2023-02-28T11:34:35;19.50;;;11.50;;
41305;SDS011;27051;50.376;19.152;2023-02-28T11:37:02;19.10;;;10.90;;
41305;SDS011;27051;50.376;19.152;2023-02-28T11:39:35;18.70;;;11.80;;
41305;SDS011;27051;50.376;19.152;2023-02-28T11:42:05;17.80;;;11.30;;
41305;SDS011;27051;50.376;19.152;2023-02-28T11:47:35;18.20;;;11.90;;
41305;SDS011;27051;50.376;19.152;2023-02-28T11:50:14;22.10;;;11.90;;
41305;SDS011;27051;50.376;19.152;2023-02-28T11:56:06;16.40;;;11.00;;
41305;SDS011;27051;50.376;19.152;2023-02-28T12:01:22;17.10;;;10.90;;
41305;SDS011;27051;50.376;19.152;2023-02-28T12:04:03;18.50;;;11.50;;
41305;SDS011;27051;50.376;19.152;2023-02-28T12:15:20;17.50;;;10.10;;
41305;SDS011;27051;50.376;19.152;2023-02-28T12:20:37;16.90;;;10.50;;
41305;SDS011;27051;50.376;19.152;2023-02-28T12:26:22;14.70;;;9.90;;
41305;SDS011;27051;50.376;19.152;2023-02-28T12:28:54;15.40;;;10.50;;
41305;SDS011;27051;50.376;19.152;2023-02-28T12:31:32;17.20;;;11.60;;
41305;SDS011;27051;50.376;19.152;2023-02-28T12:34:06;16.90;;;10.50;;
41305;SDS011;27051;50.376;19.152;2023-02-28T12:36:41;25.00;;;20.30;;
41305;SDS011;27051;50.376;19.152;2023-02-28T12:39:44;17.20;;;11.00;;
41305;SDS011;27051;50.376;19.152;2023-02-28T12:42:10;18.10;;;11.50;;
41305;SDS011;27051;50.376;19.152;2023-02-28T12:44:40;22.00;;;17.60;;
41305;SDS011;27051;50.376;19.152;2023-02-28T12:47:13;22.80;;;17.30;;
41305;SDS011;27051;50.376;19.152;2023-02-28T12:49:46;14.90;;;9.90;;
41305;SDS011;27051;50.376;19.152;2023-02-28T12:52:19;17.00;;;10.80;;
41305;SDS011;27051;50.376;19.152;2023-02-28T12:55:00;14.90;;;10.50;;
41305;SDS011;27051;50.376;19.152;2023-02-28T12:57:40;16.40;;;11.20;;
41305;SDS011;27051;50.376;19.152;2023-02-28T13:00:17;13.80;;;9.90;;
41305;SDS011;27051;50.376;19.152;2023-02-28T13:03:03;15.70;;;10.80;;
41305;SDS011;27051;50.376;19.152;2023-02-28T13:08:11;17.20;;;10.70;;
41305;SDS011;27051;50.376;19.152;2023-02-28T13:11:03;15.30;;;10.10;;
41305;SDS011;27051;50.376;19.152;2023-02-28T13:13:30;14.80;;;10.00;;
41305;SDS011;27051;50.376;19.152;2023-02-28T13:15:57;13.80;;;9.50;;
41305;SDS011;27051;50.376;19.152;2023-02-28T13:21:09;17.60;;;10.50;;
41305;SDS011;27051;50.376;19.152;2023-02-28T13:26:18;17.10;;;11.70;;
41305;SDS011;27051;50.376;19.152;2023-02-28T13:31:17;14.50;;;9.20;;
41305;SDS011;27051;50.376;19.152;2023-02-28T13:34:04;12.70;;;9.20;;
41305;SDS011;27051;50.376;19.152;2023-02-28T13:36:39;14.90;;;11.50;;
41305;SDS011;27051;50.376;19.152;2023-02-28T13:39:44;15.40;;;9.90;;
41305;SDS011;27051;50.376;19.152;2023-02-28T13:42:22;13.00;;;10.00;;
41305;SDS011;27051;50.376;19.152;2023-02-28T13:47:28;14.10;;;9.10;;
41305;SDS011;27051;50.376;19.152;2023-02-28T14:01:17;16.90;;;10.20;;
41305;SDS011;27051;50.376;19.152;2023-02-28T14:06:50;17.40;;;9.70;;
41305;SDS011;27051;50.376;19.152;2023-02-28T14:09:21;14.00;;;9.00;;
41305;SDS011;27051;50.376;19.152;2023-02-28T14:11:51;14.40;;;9.40;;
41305;SDS011;27051;50.376;19.152;2023-02-28T14:17:03;15.00;;;9.70;;
41305;SDS011;27051;50.376;19.152;2023-02-28T14:19:34;12.10;;;8.90;;
41305;SDS011;27051;50.376;19.152;2023-02-28T14:22:16;16.20;;;10.40;;
41305;SDS011;27051;50.376;19.152;2023-02-28T14:27:58;14.10;;;9.20;;
41305;SDS011;27051;50.376;19.152;2023-02-28T14:33:27;14.00;;;9.30;;
41305;SDS011;27051;50.376;19.152;2023-02-28T14:36:33;15.20;;;8.80;;
41305;SDS011;27051;50.376;19.152;2023-02-28T14:39:45;14.60;;;9.00;;
41305;SDS011;27051;50.376;19.152;2023-02-28T14:41:53;16.90;;;9.70;;
41305;SDS011;27051;50.376;19.152;2023-02-28T14:46:56;14.20;;;9.50;;
41305;SDS011;27051;50.376;19.152;2023-02-28T14:49:31;16.10;;;9.30;;
41305;SDS011;27051;50.376;19.152;2023-02-28T14:52:12;16.20;;;8.70;;
41305;SDS011;27051;50.376;19.152;2023-02-28T14:54:43;13.00;;;8.50;;
41305;SDS011;27051;50.376;19.152;2023-02-28T14:57:20;14.30;;;9.60;;
41305;SDS011;27051;50.376;19.152;2023-02-28T14:59:56;15.60;;;9.90;;
41305;SDS011;27051;50.376;19.152;2023-02-28T15:02:29;14.50;;;9.20;;
41305;SDS011;27051;50.376;19.152;2023-02-28T15:05:02;16.20;;;9.80;;
41305;SDS011;27051;50.376;19.152;2023-02-28T15:07:36;16.90;;;9.70;;
41305;SDS011;27051;50.376;19.152;2023-02-28T15:13:11;23.40;;;12.60;;
41305;SDS011;27051;50.376;19.152;2023-02-28T15:18:26;40.80;;;23.90;;
41305;SDS011;27051;50.376;19.152;2023-02-28T15:21:05;23.00;;;12.20;;
41305;SDS011;27051;50.376;19.152;2023-02-28T15:23:34;22.10;;;12.00;;
41305;SDS011;27051;50.376;19.152;2023-02-28T15:26:02;28.10;;;13.60;;
41305;SDS011;27051;50.376;19.152;2023-02-28T15:28:30;20.20;;;11.20;;
41305;SDS011;27051;50.376;19.152;2023-02-28T15:31:00;20.40;;;11.10;;
41305;SDS011;27051;50.376;19.152;2023-02-28T15:33:29;22.90;;;13.00;;
41305;SDS011;27051;50.376;19.152;2023-02-28T15:36:04;22.50;;;11.60;;
41305;SDS011;27051;50.376;19.152;2023-02-28T15:38:41;23.70;;;11.30;;
41305;SDS011;27051;50.376;19.152;2023-02-28T15:41:23;21.30;;;10.10;;
41305;SDS011;27051;50.376;19.152;2023-02-28T15:46:41;21.30;;;9.00;;
41305;SDS011;27051;50.376;19.152;2023-02-28T15:49:17;19.60;;;10.60;;
41305;SDS011;27051;50.376;19.152;2023-02-28T15:51:46;19.90;;;9.60;;
41305;SDS011;27051;50.376;19.152;2023-02-28T15:54:20;22.50;;;11.20;;
41305;SDS011;27051;50.376;19.152;2023-02-28T15:56:53;21.10;;;10.60;;
41305;SDS011;27051;50.376;19.152;2023-02-28T15:59:22;22.80;;;10.30;;
41305;SDS011;27051;50.376;19.152;2023-02-28T16:04:37;18.10;;;9.30;;
41305;SDS011;27051;50.376;19.152;2023-02-28T16:07:20;20.10;;;10.50;;
41305;SDS011;27051;50.376;19.152;2023-02-28T16:09:47;17.80;;;9.70;;
41305;SDS011;27051;50.376;19.152;2023-02-28T16:12:13;20.60;;;10.20;;
41305;SDS011;27051;50.376;19.152;2023-02-28T16:14:39;22.30;;;10.80;;
41305;SDS011;27051;50.376;19.152;2023-02-28T16:17:12;19.50;;;10.30;;
41305;SDS011;27051;50.376;19.152;2023-02-28T16:19:49;21.50;;;10.70;;
41305;SDS011;27051;50.376;19.152;2023-02-28T16:22:32;23.70;;;9.90;;
41305;SDS011;27051;50.376;19.152;2023-02-28T16:25:02;23.80;;;10.50;;
41305;SDS011;27051;50.376;19.152;2023-02-28T16:27:31;25.30;;;10.80;;
41305;SDS011;27051;50.376;19.152;2023-02-28T16:30:04;22.60;;;9.70;;
41305;SDS011;27051;50.376;19.152;2023-02-28T16:32:41;24.10;;;11.10;;
41305;SDS011;27051;50.376;19.152;2023-02-28T16:35:09;26.70;;;10.90;;
41305;SDS011;27051;50.376;19.152;2023-02-28T16:37:37;26.60;;;11.10;;
41305;SDS011;27051;50.376;19.152;2023-02-28T16:40:03;28.00;;;12.00;;
41305;SDS011;27051;50.376;19.152;2023-02-28T16:42:32;33.50;;;14.40;;
41305;SDS011;27051;50.376;19.152;2023-02-28T16:44:59;30.50;;;12.00;;
41305;SDS011;27051;50.376;19.152;2023-02-28T16:47:28;29.10;;;13.80;;
41305;SDS011;27051;50.376;19.152;2023-02-28T16:49:54;39.30;;;16.50;;
41305;SDS011;27051;50.376;19.152;2023-02-28T16:52:21;54.10;;;25.10;;
41305;SDS011;27051;50.376;19.152;2023-02-28T16:54:47;65.30;;;30.50;;
41305;SDS011;27051;50.376;19.152;2023-02-28T16:57:20;53.30;;;24.40;;